createdAt,value
2023-01-24T00:01:26.676Z,3.40
2023-01-24T00:03:56.559Z,3.48
2023-01-24T00:06:24.506Z,3.45
2023-01-24T00:08:52.522Z,3.48
2023-01-24T00:11:20.450Z,3.44
2023-01-24T00:13:48.323Z,3.54
2023-01-24T00:16:18.232Z,3.55
2023-01-24T00:18:46.691Z,3.60
2023-01-24T00:21:17.708Z,3.59
2023-01-24T00:23:47.406Z,3.61
2023-01-24T00:26:16.633Z,3.62
2023-01-24T00:28:48.251Z,3.44
2023-01-24T00:31:16.840Z,3.12
2023-01-24T00:33:44.880Z,3.52
2023-01-24T00:36:13.590Z,3.60
2023-01-24T00:38:42.960Z,3.60
2023-01-24T00:41:11.040Z,3.57
2023-01-24T00:43:38.982Z,3.55
2023-01-24T00:46:07.814Z,3.55
2023-01-24T00:48:36.031Z,3.55
2023-01-24T00:51:04.711Z,3.56
2023-01-24T00:53:32.733Z,3.52
2023-01-24T00:56:02.483Z,3.52
2023-01-24T00:58:30.446Z,3.53
2023-01-24T01:01:01.343Z,3.57
2023-01-24T01:03:29.485Z,3.57
2023-01-24T01:06:01.476Z,3.53
2023-01-24T01:08:29.731Z,3.50
2023-01-24T01:10:57.553Z,3.37
2023-01-24T01:13:27.119Z,3.55
2023-01-24T01:16:02.209Z,3.52
2023-01-24T01:18:30.108Z,3.50
2023-01-24T01:20:57.973Z,3.54
2023-01-24T01:23:25.968Z,3.55
2023-01-24T01:25:54.046Z,3.55
2023-01-24T01:28:21.956Z,3.55
2023-01-24T01:30:54.788Z,3.56
2023-01-24T01:33:23.189Z,3.52
2023-01-24T01:35:52.407Z,3.50
2023-01-24T01:38:21.669Z,3.48
2023-01-24T01:40:49.591Z,3.50
2023-01-24T01:43:19.922Z,3.49
2023-01-24T01:45:49.061Z,3.48
2023-01-24T01:48:23.102Z,3.46
2023-01-24T01:50:58.883Z,3.52
2023-01-24T01:53:32.677Z,3.52
2023-01-24T01:56:04.725Z,3.51
2023-01-24T01:58:33.690Z,3.48
2023-01-24T02:01:01.554Z,3.57
2023-01-24T02:03:40.614Z,3.56
2023-01-24T02:06:30.787Z,3.56
2023-01-24T02:09:00.016Z,3.57
2023-01-24T02:11:41.909Z,3.60
2023-01-24T02:14:30.406Z,3.60
2023-01-24T02:16:58.759Z,3.57
2023-01-24T02:19:43.554Z,3.60
2023-01-24T02:22:17.398Z,3.53
2023-01-24T02:24:54.335Z,3.63
2023-01-24T02:27:23.668Z,3.60
2023-01-24T02:29:52.032Z,3.53
2023-01-24T02:32:21.579Z,3.43
2023-01-24T02:34:50.067Z,3.36
2023-01-24T02:37:21.763Z,3.33
2023-01-24T02:39:55.756Z,3.33
2023-01-24T02:42:27.833Z,3.34
2023-01-24T02:45:06.093Z,3.34
2023-01-24T02:47:39.044Z,3.34
2023-01-24T02:50:09.264Z,3.37
2023-01-24T02:52:55.100Z,3.36
2023-01-24T02:55:24.385Z,3.39
2023-01-24T02:58:07.443Z,3.38
2023-01-24T03:00:39.534Z,3.35
2023-01-24T03:03:09.847Z,3.31
2023-01-24T03:05:57.332Z,3.30
2023-01-24T03:08:33.708Z,3.32
2023-01-24T03:11:04.256Z,3.33
2023-01-24T03:13:52.980Z,3.28
2023-01-24T03:16:40.049Z,3.25
2023-01-24T03:19:25.706Z,3.17
2023-01-24T03:22:11.230Z,3.22
2023-01-24T03:24:56.677Z,3.21
2023-01-24T03:27:42.486Z,3.14
2023-01-24T03:30:32.348Z,3.12
2023-01-24T03:33:18.314Z,3.09
2023-01-24T03:35:54.596Z,3.06
2023-01-24T03:38:43.348Z,3.06
2023-01-24T03:41:12.343Z,3.05
2023-01-24T03:43:42.338Z,3.03
2023-01-24T03:46:12.895Z,3.03
2023-01-24T03:48:51.085Z,3.05
2023-01-24T03:51:39.573Z,3.01
2023-01-24T03:54:08.665Z,2.85
2023-01-24T03:56:52.965Z,3.02
2023-01-24T03:59:22.984Z,3.01
2023-01-24T04:01:52.371Z,2.95
2023-01-24T04:04:48.001Z,3.01
2023-01-24T04:07:26.518Z,3.01
2023-01-24T04:10:01.857Z,3.08
2023-01-24T04:12:34.570Z,2.99
2023-01-24T04:15:03.413Z,3.10
2023-01-24T04:17:33.046Z,3.09
2023-01-24T04:20:01.089Z,3.06
2023-01-24T04:22:28.959Z,3.05
2023-01-24T04:24:59.650Z,3.01
2023-01-24T04:27:32.328Z,2.99
2023-01-24T04:30:12.034Z,2.98
2023-01-24T04:32:43.830Z,3.02
2023-01-24T04:35:26.727Z,3.04
2023-01-24T04:38:00.299Z,2.99
2023-01-24T04:40:42.366Z,3.06
2023-01-24T04:43:10.667Z,3.07
2023-01-24T04:45:40.836Z,3.08
2023-01-24T04:48:12.437Z,3.16
2023-01-24T04:50:41.210Z,3.12
2023-01-24T04:53:09.138Z,3.10
2023-01-24T04:55:37.531Z,3.11
2023-01-24T04:58:05.602Z,3.10
2023-01-24T05:00:33.874Z,3.09
2023-01-24T05:03:01.836Z,3.04
2023-01-24T05:05:31.526Z,3.03
2023-01-24T05:07:59.409Z,2.96
2023-01-24T05:10:27.586Z,2.98
2023-01-24T05:12:55.447Z,2.95
2023-01-24T05:15:25.057Z,2.94
2023-01-24T05:17:53.778Z,2.95
2023-01-24T05:20:24.941Z,2.97
2023-01-24T05:22:56.817Z,2.99
2023-01-24T05:25:26.792Z,2.98
2023-01-24T05:27:55.751Z,2.99
2023-01-24T05:30:24.702Z,2.99
2023-01-24T05:32:57.654Z,2.94
2023-01-24T05:35:26.195Z,3.01
2023-01-24T05:37:56.582Z,2.96
2023-01-24T05:40:25.968Z,2.92
2023-01-24T05:42:53.893Z,2.93
2023-01-24T05:45:23.051Z,2.93
2023-01-24T05:47:51.500Z,2.90
2023-01-24T05:50:20.833Z,2.85
2023-01-24T05:53:10.138Z,2.90
2023-01-24T05:55:38.099Z,2.94
2023-01-24T05:58:06.037Z,2.93
2023-01-24T06:00:39.678Z,2.95
2023-01-24T06:03:29.145Z,2.93
2023-01-24T06:05:58.316Z,2.91
2023-01-24T06:08:31.458Z,2.81
2023-01-24T06:11:04.482Z,2.84
2023-01-24T06:13:32.947Z,2.78
2023-01-24T06:16:06.409Z,2.79
2023-01-24T06:18:35.260Z,2.75
2023-01-24T06:21:07.923Z,2.81
2023-01-24T06:23:37.781Z,2.78
2023-01-24T06:26:10.259Z,2.79
2023-01-24T06:28:38.433Z,2.75
2023-01-24T06:31:13.461Z,2.65
2023-01-24T06:33:51.656Z,2.91
2023-01-24T06:36:31.377Z,2.99
2023-01-24T06:39:01.321Z,3.06
2023-01-24T06:41:29.768Z,3.13
2023-01-24T06:43:58.158Z,3.20
2023-01-24T06:46:26.145Z,3.25
2023-01-24T06:48:54.056Z,3.27
2023-01-24T06:51:22.592Z,3.29
2023-01-24T06:53:50.451Z,3.39
2023-01-24T06:56:19.807Z,3.42
2023-01-24T06:58:48.304Z,3.56
2023-01-24T07:01:16.235Z,3.59
2023-01-24T07:03:44.095Z,3.55
2023-01-24T07:06:12.012Z,3.44
2023-01-24T07:08:39.900Z,3.40
2023-01-24T07:11:07.757Z,3.39
2023-01-24T07:13:37.025Z,3.42
2023-01-24T07:16:05.305Z,3.45
2023-01-24T07:18:33.787Z,3.36
2023-01-24T07:21:02.206Z,3.54
2023-01-24T07:23:32.280Z,3.50
2023-01-24T07:26:01.406Z,3.46
2023-01-24T07:28:29.299Z,3.45
2023-01-24T07:30:59.011Z,3.36
2023-01-24T07:33:26.872Z,3.49
2023-01-24T07:36:02.177Z,3.44
2023-01-24T07:38:31.599Z,3.50
2023-01-24T07:40:59.665Z,3.58
2023-01-24T07:43:35.167Z,3.64
2023-01-24T07:46:07.543Z,3.60
2023-01-24T07:48:36.064Z,3.56
2023-01-24T07:51:07.320Z,3.52
2023-01-24T07:53:36.402Z,3.51
2023-01-24T07:56:06.971Z,3.56
2023-01-24T07:58:36.673Z,3.56
2023-01-24T08:01:04.797Z,3.54
2023-01-24T08:03:34.587Z,3.58
2023-01-24T08:06:05.329Z,3.60
2023-01-24T08:08:33.169Z,3.67
2023-01-24T08:11:00.955Z,3.48
2023-01-24T08:13:28.756Z,3.64
2023-01-24T08:15:56.549Z,3.67
2023-01-24T08:18:24.326Z,3.66
2023-01-24T08:20:56.308Z,3.68
2023-01-24T08:23:24.352Z,3.68
2023-01-24T08:25:52.396Z,3.67
2023-01-24T08:28:20.440Z,3.62
2023-01-24T08:30:48.445Z,3.60
2023-01-24T08:33:18.837Z,3.70
2023-01-24T08:35:47.276Z,3.72
2023-01-24T08:38:17.646Z,3.79
2023-01-24T08:40:49.819Z,3.80
2023-01-24T09:28:03.112Z,4.46
2023-01-24T09:30:31.180Z,4.46
2023-01-24T09:32:59.025Z,4.45
2023-01-24T09:35:26.868Z,4.46
2023-01-24T09:37:54.697Z,4.51
2023-01-24T09:40:25.950Z,4.60
2023-01-24T09:43:02.542Z,4.66
2023-01-24T09:45:36.648Z,4.62
2023-01-24T09:48:08.143Z,4.70
2023-01-24T09:50:42.773Z,4.74
2023-01-24T09:53:18.638Z,4.76
2023-01-24T09:55:48.004Z,4.80
2023-01-24T09:58:32.570Z,4.86
2023-01-24T10:01:07.784Z,4.97
2023-01-24T10:03:37.755Z,5.07
2023-01-24T10:06:15.799Z,5.08
2023-01-24T10:08:53.811Z,5.18
2023-01-24T10:11:30.982Z,5.17
2023-01-24T10:14:21.727Z,5.19
2023-01-24T10:17:22.927Z,5.19
2023-01-24T10:20:06.834Z,5.19
2023-01-24T10:22:56.943Z,5.23
2023-01-24T10:25:28.271Z,5.27
2023-01-24T10:27:59.454Z,5.28
2023-01-24T10:30:36.299Z,5.30
2023-01-24T10:33:14.387Z,5.41
2023-01-24T10:35:54.173Z,5.44
2023-01-24T10:38:22.170Z,5.50
2023-01-24T10:40:51.907Z,5.59
2023-01-24T10:43:21.642Z,5.58
2023-01-24T10:45:59.370Z,5.57
2023-01-24T10:48:40.796Z,5.62
2023-01-24T10:51:14.484Z,5.65
2023-01-24T10:53:42.536Z,5.67
2023-01-24T10:56:10.799Z,5.65
2023-01-24T10:58:42.538Z,5.66
2023-01-24T11:01:19.654Z,5.63
2023-01-24T11:03:50.669Z,5.61
2023-01-24T11:06:25.817Z,5.59
2023-01-24T11:09:03.132Z,5.68
2023-01-24T11:11:34.446Z,5.74
2023-01-24T11:14:04.158Z,5.79
2023-01-24T11:16:35.935Z,5.82
2023-01-24T11:19:07.502Z,5.86
2023-01-24T11:21:53.523Z,5.87
2023-01-24T11:24:22.829Z,5.89
2023-01-24T11:26:57.729Z,5.95
2023-01-24T11:29:27.677Z,5.96
2023-01-24T11:32:01.700Z,6.04
2023-01-24T11:34:52.732Z,6.05
2023-01-24T11:37:43.327Z,6.11
2023-01-24T11:40:30.500Z,6.17
2023-01-24T11:43:13.109Z,6.21
2023-01-24T11:45:56.919Z,6.28
2023-01-24T11:48:32.865Z,6.36
2023-01-24T11:51:14.031Z,6.46
2023-01-24T11:53:54.897Z,6.51
2023-01-24T11:56:33.465Z,6.52
2023-01-24T11:59:36.680Z,6.55
2023-01-24T12:02:25.239Z,6.65
2023-01-24T12:05:11.008Z,6.67
2023-01-24T12:07:51.900Z,6.69
2023-01-24T12:10:27.050Z,6.65
2023-01-24T12:13:05.057Z,6.77
2023-01-24T12:15:40.527Z,6.83
2023-01-24T12:18:22.099Z,6.85
2023-01-24T12:20:59.799Z,6.86
2023-01-24T12:23:39.430Z,6.83
2023-01-24T12:26:15.429Z,6.82
2023-01-24T12:28:53.201Z,6.80
2023-01-24T12:31:30.130Z,6.78
2023-01-24T12:34:03.180Z,6.66
2023-01-24T12:36:37.724Z,6.78
2023-01-24T12:39:15.996Z,6.78
2023-01-24T12:41:49.461Z,6.82
2023-01-24T12:44:28.027Z,6.85
2023-01-24T12:47:10.825Z,6.90
2023-01-24T12:49:47.910Z,6.94
2023-01-24T12:52:24.616Z,7.02
2023-01-24T12:54:58.725Z,7.08
2023-01-24T12:57:31.380Z,7.16
2023-01-24T13:00:01.302Z,7.22
2023-01-24T13:02:46.125Z,7.28
2023-01-24T13:05:29.817Z,7.39
2023-01-24T13:08:10.964Z,7.46
2023-01-24T13:10:52.909Z,7.54
2023-01-24T13:13:25.816Z,7.59
2023-01-24T13:16:08.074Z,7.68
2023-01-24T13:18:50.665Z,7.74
2023-01-24T13:21:26.524Z,7.84
2023-01-24T13:24:08.411Z,7.93
2023-01-24T13:26:52.339Z,8.04
2023-01-24T13:29:33.483Z,8.09
2023-01-24T13:32:09.006Z,8.10
2023-01-24T13:34:43.462Z,8.13
2023-01-24T13:37:20.424Z,8.03
2023-01-24T13:39:49.502Z,8.19
2023-01-24T13:42:24.484Z,8.18
2023-01-24T13:44:52.896Z,8.25
2023-01-24T13:47:34.253Z,8.26
2023-01-24T13:50:21.186Z,8.24
2023-01-24T13:52:51.357Z,8.26
2023-01-24T13:55:58.512Z,8.26
2023-01-24T13:58:29.788Z,8.22
2023-01-24T14:01:00.967Z,8.18
2023-01-24T14:03:32.632Z,8.12
2023-01-24T14:06:13.717Z,8.12
2023-01-24T14:09:04.171Z,8.16
2023-01-24T14:11:39.148Z,8.15
2023-01-24T14:14:32.038Z,8.05
2023-01-24T14:17:22.658Z,7.91
2023-01-24T14:19:51.789Z,7.76
2023-01-24T14:22:25.188Z,7.66
2023-01-24T14:25:05.584Z,7.58
2023-01-24T14:27:38.768Z,7.51
2023-01-24T14:30:36.731Z,7.42
2023-01-24T14:33:15.882Z,7.32
2023-01-24T14:35:56.942Z,7.22
2023-01-24T14:38:26.973Z,7.15
2023-01-24T14:40:56.391Z,7.08
2023-01-24T14:43:30.095Z,7.00
2023-01-24T14:45:59.527Z,6.97
2023-01-24T14:48:27.657Z,6.91
2023-01-24T14:51:00.452Z,6.85
2023-01-24T14:53:31.088Z,6.77
2023-01-24T14:56:03.938Z,6.71
2023-01-24T14:58:31.945Z,6.67
2023-01-24T15:01:03.243Z,6.62
2023-01-24T15:03:32.971Z,6.56
2023-01-24T15:06:02.940Z,6.51
2023-01-24T15:08:32.292Z,6.48
2023-01-24T15:11:04.029Z,6.45
2023-01-24T15:13:36.008Z,6.37
2023-01-24T15:16:07.435Z,6.36
2023-01-24T15:18:42.974Z,6.31
2023-01-24T15:21:26.535Z,6.34
2023-01-24T15:23:56.919Z,6.31
2023-01-24T15:26:37.902Z,6.30
2023-01-24T15:29:38.781Z,6.24
2023-01-24T15:32:24.161Z,6.19
2023-01-24T15:34:52.320Z,6.15
2023-01-24T15:37:20.262Z,6.16
2023-01-24T15:39:48.223Z,6.13
2023-01-24T15:42:35.154Z,6.08
2023-01-24T15:45:04.406Z,6.06
2023-01-24T15:47:50.456Z,6.02
2023-01-24T15:50:37.830Z,5.97
2023-01-24T15:53:24.847Z,5.94
2023-01-24T15:55:54.174Z,5.92
2023-01-24T15:58:22.083Z,5.90
2023-01-24T16:00:54.648Z,5.88
2023-01-24T16:03:23.918Z,5.86
2023-01-24T16:05:51.961Z,5.88
2023-01-24T16:08:20.097Z,5.87
2023-01-24T16:10:49.234Z,5.86
2023-01-24T16:13:29.365Z,5.82
2023-01-24T16:15:58.277Z,5.82
2023-01-24T16:18:29.661Z,5.81
2023-01-24T16:20:57.598Z,5.81
2023-01-24T16:23:25.527Z,5.82
2023-01-24T16:25:56.276Z,5.84
2023-01-24T16:28:26.317Z,5.89
2023-01-24T16:30:56.401Z,5.89
2023-01-24T16:33:24.956Z,5.90
2023-01-24T16:35:54.324Z,5.89
2023-01-24T16:38:22.982Z,5.86
2023-01-24T16:40:50.941Z,5.83
2023-01-24T16:43:21.217Z,5.81
2023-01-24T16:45:51.943Z,5.75
2023-01-24T16:48:19.979Z,5.77
2023-01-24T16:50:48.037Z,5.78
2023-01-24T16:53:17.880Z,5.76
2023-01-24T16:55:55.986Z,5.76
2023-01-24T16:58:24.150Z,5.75
2023-01-24T17:00:52.014Z,5.73
2023-01-24T17:03:19.985Z,5.72
2023-01-24T17:05:47.857Z,5.72
2023-01-24T17:08:17.336Z,5.68
2023-01-24T17:10:45.634Z,5.63
2023-01-24T17:13:13.454Z,5.59
2023-01-24T17:15:42.736Z,5.56
2023-01-24T17:18:11.293Z,5.55
2023-01-24T17:20:39.582Z,5.52
2023-01-24T17:23:07.733Z,5.54
2023-01-24T17:25:37.073Z,5.54
2023-01-24T17:28:05.403Z,5.44
2023-01-24T17:30:33.312Z,5.33
2023-01-24T17:33:02.099Z,5.22
2023-01-24T17:35:29.925Z,5.10
2023-01-24T17:37:57.791Z,5.10
2023-01-24T17:40:25.650Z,5.07
2023-01-24T17:42:54.950Z,5.02
2023-01-24T17:45:22.912Z,5.01
2023-01-24T17:47:52.456Z,5.00
2023-01-24T17:50:21.501Z,5.00
2023-01-24T17:52:49.449Z,5.00
2023-01-24T17:55:17.702Z,4.96
2023-01-24T17:57:45.607Z,4.95
2023-01-24T18:00:15.709Z,4.97
2023-01-24T18:02:47.294Z,4.97
2023-01-24T18:05:15.435Z,4.94
2023-01-24T18:07:43.369Z,4.87
2023-01-24T18:10:14.179Z,4.83
2023-01-24T18:12:42.334Z,4.84
2023-01-24T18:15:11.487Z,4.75
2023-01-24T18:17:40.904Z,4.75
2023-01-24T18:20:10.077Z,4.71
2023-01-24T18:22:41.760Z,4.76
2023-01-24T18:25:10.281Z,4.87
2023-01-24T18:27:38.295Z,4.97
2023-01-24T18:30:08.377Z,4.97
2023-01-24T18:32:36.325Z,5.01
2023-01-24T18:35:06.674Z,5.06
2023-01-24T18:37:34.910Z,5.03
2023-01-24T18:40:02.881Z,5.01
2023-01-24T18:42:32.300Z,4.94
2023-01-24T18:45:00.216Z,4.88
2023-01-24T18:47:28.165Z,4.85
2023-01-24T18:49:56.043Z,4.86
2023-01-24T18:52:25.283Z,4.89
2023-01-24T18:54:53.157Z,4.84
2023-01-24T18:57:21.566Z,4.87
2023-01-24T18:59:49.627Z,4.89
2023-01-24T19:02:17.735Z,4.90
2023-01-24T19:04:45.603Z,4.94
2023-01-24T19:07:13.520Z,4.87
2023-01-24T19:09:42.680Z,4.86
2023-01-24T19:12:11.469Z,4.86
2023-01-24T19:14:39.325Z,4.92
2023-01-24T19:17:07.301Z,4.90
2023-01-24T19:19:35.248Z,4.92
2023-01-24T19:22:07.952Z,4.79
2023-01-24T19:24:36.672Z,4.96
2023-01-24T19:27:05.940Z,4.95
2023-01-24T19:29:33.922Z,4.94
2023-01-24T19:32:01.979Z,4.91
2023-01-24T19:34:29.994Z,4.87
2023-01-24T19:36:58.087Z,4.84
2023-01-24T19:39:26.349Z,4.90
2023-01-24T19:41:54.287Z,4.86
2023-01-24T19:44:25.945Z,4.85
2023-01-24T19:46:53.984Z,4.78
2023-01-24T19:49:21.903Z,4.82
2023-01-24T19:51:49.910Z,4.81
2023-01-24T19:54:17.995Z,4.77
2023-01-24T19:56:45.938Z,4.74
2023-01-24T19:59:13.928Z,4.73
2023-01-24T20:01:43.436Z,4.72
2023-01-24T20:04:23.156Z,4.71
2023-01-24T20:06:52.672Z,4.69
2023-01-24T20:09:20.596Z,4.68
2023-01-24T20:11:48.664Z,4.67
2023-01-24T20:14:16.569Z,4.59
2023-01-24T20:16:45.960Z,4.56
2023-01-24T20:19:27.204Z,4.48
2023-01-24T20:21:57.108Z,4.38
2023-01-24T20:24:25.083Z,4.38
2023-01-24T20:26:53.572Z,4.39
2023-01-24T20:29:21.736Z,4.36
2023-01-24T20:31:51.104Z,4.25
2023-01-24T20:34:19.401Z,4.16
2023-01-24T20:36:48.343Z,4.05
2023-01-24T20:39:17.348Z,4.06
2023-01-24T20:41:46.436Z,4.01
2023-01-24T20:44:25.619Z,4.01
2023-01-24T20:46:55.889Z,3.92
2023-01-24T20:49:24.592Z,3.85
2023-01-24T20:51:52.513Z,3.78
2023-01-24T20:54:21.865Z,3.63
2023-01-24T20:56:54.641Z,3.48
2023-01-24T20:59:22.866Z,3.36
2023-01-24T21:01:50.896Z,3.31
2023-01-24T21:04:20.706Z,3.22
2023-01-24T21:06:49.293Z,3.05
2023-01-24T21:09:18.054Z,3.09
2023-01-24T21:11:47.651Z,3.06
2023-01-24T21:14:16.779Z,3.02
2023-01-24T21:16:45.266Z,2.66
2023-01-24T21:19:18.494Z,3.03
2023-01-24T21:21:49.951Z,3.00
2023-01-24T21:24:32.306Z,2.95
2023-01-24T21:27:02.020Z,2.91
2023-01-24T21:29:30.022Z,2.91
2023-01-24T21:31:58.112Z,2.92
2023-01-24T21:34:26.223Z,2.98
2023-01-24T21:36:55.590Z,2.96
2023-01-24T21:39:25.126Z,3.09
2023-01-24T21:41:56.380Z,3.17
2023-01-24T21:44:25.360Z,3.21
2023-01-24T21:46:54.165Z,3.26
2023-01-24T21:49:22.143Z,3.28
2023-01-24T21:51:50.991Z,3.37
2023-01-24T21:54:21.912Z,3.47
2023-01-24T21:57:23.979Z,3.52
2023-01-24T21:59:57.272Z,3.60
2023-01-24T22:02:27.626Z,3.55
2023-01-24T22:04:55.812Z,3.48
2023-01-24T22:07:26.030Z,3.48
2023-01-24T22:09:56.286Z,3.41
2023-01-24T22:12:24.958Z,3.41
2023-01-24T22:14:53.773Z,3.41
2023-01-24T22:17:24.502Z,3.42
2023-01-24T22:19:55.343Z,3.43
2023-01-24T22:23:10.590Z,3.40
2023-01-24T22:25:51.381Z,3.35
2023-01-24T22:28:21.871Z,3.31
2023-01-24T22:30:50.258Z,3.27
2023-01-24T22:33:18.721Z,3.08
2023-01-24T22:35:48.793Z,2.93
2023-01-24T22:38:16.714Z,2.88
2023-01-24T22:40:45.894Z,2.84
2023-01-24T22:43:14.793Z,2.79
2023-01-24T22:45:42.662Z,2.80
2023-01-24T22:48:14.698Z,2.87
2023-01-24T22:50:42.795Z,2.87
2023-01-24T22:53:11.570Z,2.90
2023-01-24T22:55:39.722Z,2.90
2023-01-24T22:58:09.250Z,2.91
2023-01-24T23:00:37.268Z,2.87
2023-01-24T23:03:05.348Z,2.94
2023-01-24T23:05:33.211Z,3.02
2023-01-24T23:08:01.153Z,3.08
2023-01-24T23:10:29.190Z,3.15
2023-01-24T23:13:14.785Z,3.18
2023-01-24T23:16:01.443Z,2.87
2023-01-24T23:18:43.817Z,2.54
2023-01-24T23:21:31.192Z,2.41
2023-01-24T23:23:59.658Z,2.31
2023-01-24T23:26:27.810Z,2.25
2023-01-24T23:29:06.123Z,2.27
2023-01-24T23:31:35.510Z,2.33
2023-01-24T23:34:03.929Z,2.37
2023-01-24T23:36:33.889Z,2.42
2023-01-24T23:39:01.701Z,2.46
2023-01-24T23:41:29.508Z,2.54
2023-01-24T23:43:57.309Z,2.61
2023-01-24T23:46:25.177Z,2.68
2023-01-24T23:48:56.174Z,2.69
2023-01-24T23:51:25.270Z,2.73
2023-01-24T23:53:54.277Z,2.75
2023-01-24T23:56:23.020Z,2.74
2023-01-24T23:58:50.900Z,2.77
